sensor_id;sensor_type;location;lat;lon;timestamp;P1;durP1;ratioP1;P2;durP2;ratioP2
14021;SDS011;7086;48.116;11.580;2022-09-27T00:00:58;1.20;;;1.10;;
14021;SDS011;7086;48.116;11.580;2022-09-27T00:03:28;1.00;;;1.00;;
14021;SDS011;7086;48.116;11.580;2022-09-27T00:06:00;1.10;;;1.10;;
14021;SDS011;7086;48.116;11.580;2022-09-27T00:08:30;1.88;;;1.20;;
14021;SDS011;7086;48.116;11.580;2022-09-27T00:10:59;0.90;;;0.90;;
14021;SDS011;7086;48.116;11.580;2022-09-27T00:13:28;1.10;;;1.00;;
14021;SDS011;7086;48.116;11.580;2022-09-27T00:15:56;1.10;;;1.10;;
14021;SDS011;7086;48.116;11.580;2022-09-27T00:18:25;1.02;;;1.02;;
14021;SDS011;7086;48.116;11.580;2022-09-27T00:21:02;1.17;;;1.08;;
14021;SDS011;7086;48.116;11.580;2022-09-27T00:23:32;1.02;;;1.02;;
14021;SDS011;7086;48.116;11.580;2022-09-27T00:26:00;1.20;;;1.20;;
14021;SDS011;7086;48.116;11.580;2022-09-27T00:28:29;0.85;;;0.85;;
14021;SDS011;7086;48.116;11.580;2022-09-27T00:30:58;0.75;;;0.75;;
14021;SDS011;7086;48.116;11.580;2022-09-27T00:33:28;0.80;;;0.80;;
14021;SDS011;7086;48.116;11.580;2022-09-27T00:36:02;0.90;;;0.90;;
14021;SDS011;7086;48.116;11.580;2022-09-27T00:38:31;1.00;;;1.00;;
14021;SDS011;7086;48.116;11.580;2022-09-27T00:40:59;1.10;;;1.10;;
14021;SDS011;7086;48.116;11.580;2022-09-27T00:43:33;0.90;;;0.90;;
14021;SDS011;7086;48.116;11.580;2022-09-27T00:46:14;0.70;;;0.70;;
14021;SDS011;7086;48.116;11.580;2022-09-27T00:48:55;2.25;;;0.90;;
14021;SDS011;7086;48.116;11.580;2022-09-27T00:51:31;0.93;;;0.93;;
14021;SDS011;7086;48.116;11.580;2022-09-27T00:54:02;1.55;;;1.10;;
14021;SDS011;7086;48.116;11.580;2022-09-27T00:56:33;0.85;;;0.85;;
14021;SDS011;7086;48.116;11.580;2022-09-27T00:59:05;0.95;;;0.95;;
14021;SDS011;7086;48.116;11.580;2022-09-27T01:01:39;1.13;;;1.13;;
14021;SDS011;7086;48.116;11.580;2022-09-27T01:04:09;1.02;;;0.93;;
14021;SDS011;7086;48.116;11.580;2022-09-27T01:06:38;2.53;;;1.30;;
14021;SDS011;7086;48.116;11.580;2022-09-27T01:09:07;1.10;;;1.10;;
14021;SDS011;7086;48.116;11.580;2022-09-27T01:11:38;1.25;;;1.15;;
14021;SDS011;7086;48.116;11.580;2022-09-27T01:14:22;1.10;;;1.10;;
14021;SDS011;7086;48.116;11.580;2022-09-27T01:17:16;0.95;;;0.95;;
14021;SDS011;7086;48.116;11.580;2022-09-27T01:23:35;1.00;;;1.00;;
14021;SDS011;7086;48.116;11.580;2022-09-27T01:26:26;1.25;;;1.25;;
14021;SDS011;7086;48.116;11.580;2022-09-27T01:29:25;2.70;;;1.13;;
14021;SDS011;7086;48.116;11.580;2022-09-27T01:32:15;1.17;;;1.10;;
14021;SDS011;7086;48.116;11.580;2022-09-27T01:34:59;1.13;;;1.13;;
14021;SDS011;7086;48.116;11.580;2022-09-27T01:37:36;4.13;;;1.30;;
14021;SDS011;7086;48.116;11.580;2022-09-27T01:40:16;1.70;;;1.20;;
14021;SDS011;7086;48.116;11.580;2022-09-27T01:42:52;0.95;;;0.95;;
14021;SDS011;7086;48.116;11.580;2022-09-27T01:45:32;1.50;;;1.40;;
14021;SDS011;7086;48.116;11.580;2022-09-27T01:48:10;3.08;;;1.20;;
14021;SDS011;7086;48.116;11.580;2022-09-27T01:50:44;1.15;;;1.13;;
14021;SDS011;7086;48.116;11.580;2022-09-27T01:53:23;1.10;;;1.10;;
14021;SDS011;7086;48.116;11.580;2022-09-27T01:56:01;1.27;;;1.27;;
14021;SDS011;7086;48.116;11.580;2022-09-27T01:58:49;1.38;;;1.27;;
14021;SDS011;7086;48.116;11.580;2022-09-27T02:01:36;1.42;;;1.33;;
14021;SDS011;7086;48.116;11.580;2022-09-27T02:04:18;1.73;;;1.20;;
14021;SDS011;7086;48.116;11.580;2022-09-27T02:06:55;1.30;;;1.30;;
14021;SDS011;7086;48.116;11.580;2022-09-27T02:09:32;1.52;;;1.42;;
14021;SDS011;7086;48.116;11.580;2022-09-27T02:12:15;1.20;;;1.10;;
14021;SDS011;7086;48.116;11.580;2022-09-27T02:14:57;1.13;;;1.13;;
14021;SDS011;7086;48.116;11.580;2022-09-27T02:17:35;1.27;;;1.17;;
14021;SDS011;7086;48.116;11.580;2022-09-27T02:20:14;1.88;;;1.45;;
14021;SDS011;7086;48.116;11.580;2022-09-27T02:23:08;1.83;;;1.33;;
14021;SDS011;7086;48.116;11.580;2022-09-27T02:25:50;1.10;;;1.10;;
14021;SDS011;7086;48.116;11.580;2022-09-27T02:28:24;1.30;;;1.30;;
14021;SDS011;7086;48.116;11.580;2022-09-27T02:30:57;2.15;;;2.05;;
14021;SDS011;7086;48.116;11.580;2022-09-27T02:33:25;2.85;;;1.77;;
14021;SDS011;7086;48.116;11.580;2022-09-27T02:36:01;1.50;;;1.40;;
14021;SDS011;7086;48.116;11.580;2022-09-27T02:38:29;1.58;;;1.48;;
14021;SDS011;7086;48.116;11.580;2022-09-27T02:40:58;2.17;;;1.50;;
14021;SDS011;7086;48.116;11.580;2022-09-27T02:43:26;2.78;;;1.70;;
14021;SDS011;7086;48.116;11.580;2022-09-27T02:46:05;2.95;;;2.75;;
14021;SDS011;7086;48.116;11.580;2022-09-27T02:48:53;2.90;;;1.83;;
14021;SDS011;7086;48.116;11.580;2022-09-27T02:51:37;1.83;;;1.52;;
14021;SDS011;7086;48.116;11.580;2022-09-27T02:54:15;2.67;;;1.42;;
14021;SDS011;7086;48.116;11.580;2022-09-27T02:56:59;2.80;;;2.55;;
14021;SDS011;7086;48.116;11.580;2022-09-27T02:59:40;2.50;;;2.30;;
14021;SDS011;7086;48.116;11.580;2022-09-27T03:02:20;2.30;;;1.63;;
14021;SDS011;7086;48.116;11.580;2022-09-27T03:04:59;2.50;;;1.63;;
14021;SDS011;7086;48.116;11.580;2022-09-27T03:07:34;1.77;;;1.67;;
14021;SDS011;7086;48.116;11.580;2022-09-27T03:10:04;1.35;;;1.27;;
14021;SDS011;7086;48.116;11.580;2022-09-27T03:12:42;2.25;;;2.05;;
14021;SDS011;7086;48.116;11.580;2022-09-27T03:15:19;1.48;;;1.38;;
14021;SDS011;7086;48.116;11.580;2022-09-27T03:17:54;1.90;;;1.80;;
14021;SDS011;7086;48.116;11.580;2022-09-27T03:20:24;1.90;;;1.80;;
14021;SDS011;7086;48.116;11.580;2022-09-27T03:22:57;1.95;;;1.90;;
14021;SDS011;7086;48.116;11.580;2022-09-27T03:25:28;3.03;;;1.98;;
14021;SDS011;7086;48.116;11.580;2022-09-27T03:27:57;2.42;;;2.17;;
14021;SDS011;7086;48.116;11.580;2022-09-27T03:30:43;2.53;;;1.77;;
14021;SDS011;7086;48.116;11.580;2022-09-27T03:33:14;2.55;;;2.35;;
14021;SDS011;7086;48.116;11.580;2022-09-27T03:35:45;1.60;;;1.50;;
14021;SDS011;7086;48.116;11.580;2022-09-27T03:38:16;2.92;;;2.72;;
14021;SDS011;7086;48.116;11.580;2022-09-27T03:40:48;1.80;;;1.70;;
14021;SDS011;7086;48.116;11.580;2022-09-27T03:43:18;1.42;;;1.42;;
14021;SDS011;7086;48.116;11.580;2022-09-27T03:45:53;3.15;;;2.72;;
14021;SDS011;7086;48.116;11.580;2022-09-27T03:48:29;2.25;;;2.15;;
14021;SDS011;7086;48.116;11.580;2022-09-27T03:51:02;1.73;;;1.63;;
14021;SDS011;7086;48.116;11.580;2022-09-27T03:53:31;1.83;;;1.73;;
14021;SDS011;7086;48.116;11.580;2022-09-27T03:56:07;2.05;;;1.88;;
14021;SDS011;7086;48.116;11.580;2022-09-27T03:58:37;1.50;;;1.50;;
14021;SDS011;7086;48.116;11.580;2022-09-27T04:01:14;1.70;;;1.60;;
14021;SDS011;7086;48.116;11.580;2022-09-27T04:03:48;1.58;;;1.27;;
14021;SDS011;7086;48.116;11.580;2022-09-27T04:06:40;2.55;;;2.35;;
14021;SDS011;7086;48.116;11.580;2022-09-27T04:09:16;2.20;;;2.00;;
14021;SDS011;7086;48.116;11.580;2022-09-27T04:11:53;2.40;;;1.60;;
14021;SDS011;7086;48.116;11.580;2022-09-27T04:14:38;2.22;;;1.67;;
14021;SDS011;7086;48.116;11.580;2022-09-27T04:17:19;2.17;;;2.08;;
14021;SDS011;7086;48.116;11.580;2022-09-27T04:19:55;1.85;;;1.55;;
14021;SDS011;7086;48.116;11.580;2022-09-27T04:22:28;1.80;;;1.70;;
14021;SDS011;7086;48.116;11.580;2022-09-27T04:27:45;1.58;;;1.48;;
14021;SDS011;7086;48.116;11.580;2022-09-27T04:30:16;3.63;;;1.75;;
14021;SDS011;7086;48.116;11.580;2022-09-27T04:33:01;1.83;;;1.73;;
14021;SDS011;7086;48.116;11.580;2022-09-27T04:35:37;1.90;;;1.80;;
14021;SDS011;7086;48.116;11.580;2022-09-27T04:38:22;2.95;;;2.75;;
14021;SDS011;7086;48.116;11.580;2022-09-27T04:43:58;3.58;;;2.13;;
14021;SDS011;7086;48.116;11.580;2022-09-27T04:46:27;2.28;;;1.75;;
14021;SDS011;7086;48.116;11.580;2022-09-27T04:49:14;2.88;;;2.67;;
14021;SDS011;7086;48.116;11.580;2022-09-27T04:51:42;3.80;;;1.83;;
14021;SDS011;7086;48.116;11.580;2022-09-27T04:54:14;1.70;;;1.60;;
14021;SDS011;7086;48.116;11.580;2022-09-27T04:56:43;2.47;;;2.08;;
14021;SDS011;7086;48.116;11.580;2022-09-27T04:59:14;6.50;;;2.33;;
14021;SDS011;7086;48.116;11.580;2022-09-27T05:01:46;2.45;;;2.35;;
14021;SDS011;7086;48.116;11.580;2022-09-27T05:04:15;2.72;;;2.53;;
14021;SDS011;7086;48.116;11.580;2022-09-27T05:06:52;2.00;;;1.90;;
14021;SDS011;7086;48.116;11.580;2022-09-27T05:09:27;2.13;;;1.67;;
14021;SDS011;7086;48.116;11.580;2022-09-27T05:12:00;3.70;;;3.30;;
14021;SDS011;7086;48.116;11.580;2022-09-27T05:14:34;3.67;;;3.38;;
14021;SDS011;7086;48.116;11.580;2022-09-27T05:17:03;2.05;;;1.85;;
14021;SDS011;7086;48.116;11.580;2022-09-27T05:19:35;1.63;;;1.45;;
14021;SDS011;7086;48.116;11.580;2022-09-27T05:22:09;1.20;;;1.20;;
14021;SDS011;7086;48.116;11.580;2022-09-27T05:24:42;1.77;;;1.42;;
14021;SDS011;7086;48.116;11.580;2022-09-27T05:27:12;1.13;;;1.02;;
14021;SDS011;7086;48.116;11.580;2022-09-27T05:39:21;1.20;;;1.20;;
14021;SDS011;7086;48.116;11.580;2022-09-27T05:41:49;1.00;;;1.00;;
14021;SDS011;7086;48.116;11.580;2022-09-27T05:44:31;1.30;;;1.20;;
14021;SDS011;7086;48.116;11.580;2022-09-27T05:47:13;2.55;;;0.80;;
14021;SDS011;7086;48.116;11.580;2022-09-27T05:50:01;1.10;;;1.10;;
14021;SDS011;7086;48.116;11.580;2022-09-27T05:52:44;1.05;;;1.00;;
14021;SDS011;7086;48.116;11.580;2022-09-27T05:58:24;1.30;;;1.10;;
14021;SDS011;7086;48.116;11.580;2022-09-27T06:01:05;3.00;;;1.13;;
14021;SDS011;7086;48.116;11.580;2022-09-27T06:03:47;2.05;;;1.10;;
14021;SDS011;7086;48.116;11.580;2022-09-27T06:06:30;0.93;;;0.93;;
14021;SDS011;7086;48.116;11.580;2022-09-27T06:09:03;1.17;;;0.93;;
14021;SDS011;7086;48.116;11.580;2022-09-27T06:17:34;0.70;;;0.70;;
14021;SDS011;7086;48.116;11.580;2022-09-27T06:20:29;0.75;;;0.75;;
14021;SDS011;7086;48.116;11.580;2022-09-27T06:23:13;0.95;;;0.90;;
14021;SDS011;7086;48.116;11.580;2022-09-27T06:26:01;0.60;;;0.60;;
14021;SDS011;7086;48.116;11.580;2022-09-27T06:28:51;0.60;;;0.60;;
14021;SDS011;7086;48.116;11.580;2022-09-27T06:44:31;0.90;;;0.90;;
14021;SDS011;7086;48.116;11.580;2022-09-27T06:47:19;1.20;;;0.80;;
14021;SDS011;7086;48.116;11.580;2022-09-27T06:52:46;1.13;;;1.08;;
14021;SDS011;7086;48.116;11.580;2022-09-27T06:55:31;0.50;;;0.50;;
14021;SDS011;7086;48.116;11.580;2022-09-27T07:05:01;0.60;;;0.60;;
14021;SDS011;7086;48.116;11.580;2022-09-27T07:07:34;0.60;;;0.60;;
14021;SDS011;7086;48.116;11.580;2022-09-27T07:10:16;0.77;;;0.68;;
14021;SDS011;7086;48.116;11.580;2022-09-27T07:13:02;0.68;;;0.65;;
14021;SDS011;7086;48.116;11.580;2022-09-27T07:15:45;0.70;;;0.70;;
14021;SDS011;7086;48.116;11.580;2022-09-27T07:18:18;1.85;;;0.88;;
14021;SDS011;7086;48.116;11.580;2022-09-27T07:20:51;5.50;;;0.70;;
14021;SDS011;7086;48.116;11.580;2022-09-27T07:23:39;1.15;;;1.08;;
14021;SDS011;7086;48.116;11.580;2022-09-27T07:26:20;1.45;;;0.90;;
14021;SDS011;7086;48.116;11.580;2022-09-27T07:29:03;1.23;;;0.80;;
14021;SDS011;7086;48.116;11.580;2022-09-27T07:31:45;2.55;;;2.45;;
14021;SDS011;7086;48.116;11.580;2022-09-27T07:41:13;0.88;;;0.60;;
14021;SDS011;7086;48.116;11.580;2022-09-27T07:43:58;0.47;;;0.43;;
14021;SDS011;7086;48.116;11.580;2022-09-27T07:46:41;0.50;;;0.50;;
14021;SDS011;7086;48.116;11.580;2022-09-27T07:49:15;1.00;;;0.70;;
14021;SDS011;7086;48.116;11.580;2022-09-27T07:51:52;0.52;;;0.52;;
14021;SDS011;7086;48.116;11.580;2022-09-27T07:54:35;0.50;;;0.50;;
14021;SDS011;7086;48.116;11.580;2022-09-27T08:03:52;1.40;;;0.65;;
14021;SDS011;7086;48.116;11.580;2022-09-27T08:09:09;1.00;;;0.88;;
14021;SDS011;7086;48.116;11.580;2022-09-27T08:11:51;0.30;;;0.30;;
14021;SDS011;7086;48.116;11.580;2022-09-27T08:14:35;0.32;;;0.32;;
14021;SDS011;7086;48.116;11.580;2022-09-27T08:20:32;0.30;;;0.30;;
14021;SDS011;7086;48.116;11.580;2022-09-27T08:23:14;0.40;;;0.40;;
14021;SDS011;7086;48.116;11.580;2022-09-27T08:25:56;0.40;;;0.40;;
14021;SDS011;7086;48.116;11.580;2022-09-27T08:28:37;0.40;;;0.40;;
14021;SDS011;7086;48.116;11.580;2022-09-27T08:31:20;0.55;;;0.55;;
14021;SDS011;7086;48.116;11.580;2022-09-27T08:39:40;0.45;;;0.45;;
14021;SDS011;7086;48.116;11.580;2022-09-27T08:42:24;0.40;;;0.40;;
14021;SDS011;7086;48.116;11.580;2022-09-27T08:45:21;0.43;;;0.43;;
14021;SDS011;7086;48.116;11.580;2022-09-27T08:51:04;0.70;;;0.70;;
14021;SDS011;7086;48.116;11.580;2022-09-27T08:57:03;0.50;;;0.50;;
14021;SDS011;7086;48.116;11.580;2022-09-27T08:59:53;0.30;;;0.30;;
14021;SDS011;7086;48.116;11.580;2022-09-27T09:05:22;0.40;;;0.40;;
14021;SDS011;7086;48.116;11.580;2022-09-27T09:08:17;0.40;;;0.40;;
14021;SDS011;7086;48.116;11.580;2022-09-27T09:11:23;0.35;;;0.35;;
14021;SDS011;7086;48.116;11.580;2022-09-27T09:26:47;0.38;;;0.30;;
14021;SDS011;7086;48.116;11.580;2022-09-27T09:37:33;1.08;;;0.40;;
14021;SDS011;7086;48.116;11.580;2022-09-27T10:43:15;0.60;;;0.60;;
14021;SDS011;7086;48.116;11.580;2022-09-27T10:46:11;0.90;;;0.90;;
14021;SDS011;7086;48.116;11.580;2022-09-27T10:51:39;0.60;;;0.60;;
14021;SDS011;7086;48.116;11.580;2022-09-27T10:54:23;2.72;;;0.93;;
14021;SDS011;7086;48.116;11.580;2022-09-27T11:03:38;0.75;;;0.70;;
14021;SDS011;7086;48.116;11.580;2022-09-27T11:06:30;1.30;;;0.77;;
14021;SDS011;7086;48.116;11.580;2022-09-27T11:12:07;0.52;;;0.50;;
14021;SDS011;7086;48.116;11.580;2022-09-27T11:14:53;0.95;;;0.60;;
14021;SDS011;7086;48.116;11.580;2022-09-27T20:44:26;0.70;;;0.70;;
14021;SDS011;7086;48.116;11.580;2022-09-27T20:46:59;0.73;;;0.73;;
14021;SDS011;7086;48.116;11.580;2022-09-27T20:49:40;0.70;;;0.70;;
14021;SDS011;7086;48.116;11.580;2022-09-27T20:52:32;0.60;;;0.60;;
14021;SDS011;7086;48.116;11.580;2022-09-27T20:55:17;0.80;;;0.80;;
14021;SDS011;7086;48.116;11.580;2022-09-27T20:58:30;0.60;;;0.60;;
14021;SDS011;7086;48.116;11.580;2022-09-27T21:04:41;0.60;;;0.60;;
14021;SDS011;7086;48.116;11.580;2022-09-27T21:07:33;0.70;;;0.70;;
14021;SDS011;7086;48.116;11.580;2022-09-27T21:10:34;0.68;;;0.68;;
14021;SDS011;7086;48.116;11.580;2022-09-27T21:13:28;0.50;;;0.50;;
14021;SDS011;7086;48.116;11.580;2022-09-27T21:16:34;0.50;;;0.50;;
14021;SDS011;7086;48.116;11.580;2022-09-27T21:38:50;0.50;;;0.50;;
14021;SDS011;7086;48.116;11.580;2022-09-27T21:41:36;0.50;;;0.50;;
14021;SDS011;7086;48.116;11.580;2022-09-27T21:44:24;0.43;;;0.43;;
14021;SDS011;7086;48.116;11.580;2022-09-27T21:47:14;0.55;;;0.55;;
14021;SDS011;7086;48.116;11.580;2022-09-27T22:07:18;0.60;;;0.60;;
14021;SDS011;7086;48.116;11.580;2022-09-27T22:10:32;2.08;;;0.50;;
14021;SDS011;7086;48.116;11.580;2022-09-27T22:13:26;0.85;;;0.85;;
14021;SDS011;7086;48.116;11.580;2022-09-27T22:19:32;0.50;;;0.50;;
14021;SDS011;7086;48.116;11.580;2022-09-27T22:22:27;0.57;;;0.57;;
14021;SDS011;7086;48.116;11.580;2022-09-27T22:25:18;0.70;;;0.70;;
14021;SDS011;7086;48.116;11.580;2022-09-27T22:28:08;0.60;;;0.60;;
14021;SDS011;7086;48.116;11.580;2022-09-27T22:30:47;0.70;;;0.70;;
14021;SDS011;7086;48.116;11.580;2022-09-27T22:33:22;0.60;;;0.60;;
14021;SDS011;7086;48.116;11.580;2022-09-27T22:36:06;1.88;;;0.50;;
14021;SDS011;7086;48.116;11.580;2022-09-27T22:38:45;0.50;;;0.50;;
14021;SDS011;7086;48.116;11.580;2022-09-27T22:41:24;0.60;;;0.60;;
14021;SDS011;7086;48.116;11.580;2022-09-27T22:44:02;1.80;;;0.70;;
14021;SDS011;7086;48.116;11.580;2022-09-27T22:46:51;0.50;;;0.50;;
14021;SDS011;7086;48.116;11.580;2022-09-27T22:49:38;0.75;;;0.75;;
14021;SDS011;7086;48.116;11.580;2022-09-27T22:52:26;0.52;;;0.52;;
14021;SDS011;7086;48.116;11.580;2022-09-27T22:55:01;0.50;;;0.50;;
14021;SDS011;7086;48.116;11.580;2022-09-27T22:57:44;0.60;;;0.60;;
14021;SDS011;7086;48.116;11.580;2022-09-27T23:00:30;0.75;;;0.75;;
14021;SDS011;7086;48.116;11.580;2022-09-27T23:03:06;0.70;;;0.70;;
14021;SDS011;7086;48.116;11.580;2022-09-27T23:05:41;0.70;;;0.65;;
14021;SDS011;7086;48.116;11.580;2022-09-27T23:08:15;0.60;;;0.60;;
14021;SDS011;7086;48.116;11.580;2022-09-27T23:10:45;0.90;;;0.68;;
14021;SDS011;7086;48.116;11.580;2022-09-27T23:13:19;0.70;;;0.70;;
14021;SDS011;7086;48.116;11.580;2022-09-27T23:15:59;0.50;;;0.50;;
14021;SDS011;7086;48.116;11.580;2022-09-27T23:18:42;0.70;;;0.70;;
14021;SDS011;7086;48.116;11.580;2022-09-27T23:21:15;0.60;;;0.60;;
14021;SDS011;7086;48.116;11.580;2022-09-27T23:23:45;0.70;;;0.70;;
14021;SDS011;7086;48.116;11.580;2022-09-27T23:26:20;1.00;;;0.90;;
14021;SDS011;7086;48.116;11.580;2022-09-27T23:28:54;0.60;;;0.60;;
14021;SDS011;7086;48.116;11.580;2022-09-27T23:31:36;0.68;;;0.68;;
14021;SDS011;7086;48.116;11.580;2022-09-27T23:34:17;0.80;;;0.80;;
14021;SDS011;7086;48.116;11.580;2022-09-27T23:37:04;0.50;;;0.50;;
14021;SDS011;7086;48.116;11.580;2022-09-27T23:43:13;0.60;;;0.60;;
14021;SDS011;7086;48.116;11.580;2022-09-27T23:45:55;0.70;;;0.70;;
14021;SDS011;7086;48.116;11.580;2022-09-27T23:48:46;0.50;;;0.50;;
14021;SDS011;7086;48.116;11.580;2022-09-27T23:51:43;0.70;;;0.70;;
14021;SDS011;7086;48.116;11.580;2022-09-27T23:54:31;0.77;;;0.77;;
14021;SDS011;7086;48.116;11.580;2022-09-27T23:57:10;0.68;;;0.68;;
14021;SDS011;7086;48.116;11.580;2022-09-27T23:59:53;0.60;;;0.60;;
